createdAt,value
2017-11-11T00:02:01.905Z,83.13
2017-11-11T00:04:31.910Z,82.75
2017-11-11T00:07:01.097Z,82.78
2017-11-11T00:09:30.556Z,83.25
2017-11-11T00:11:59.789Z,83.25
2017-11-11T00:14:28.995Z,83.25
2017-11-11T00:16:58.220Z,83.62
2017-11-11T00:19:27.451Z,83.56
2017-11-11T00:21:56.663Z,83.48
2017-11-11T00:24:26.020Z,83.78
2017-11-11T00:26:56.041Z,83.85
2017-11-11T00:29:25.252Z,83.63
2017-11-11T00:31:54.572Z,83.50
2017-11-11T00:34:23.805Z,83.60
2017-11-11T00:36:53.024Z,83.73
2017-11-11T00:39:23.021Z,84.24
2017-11-11T00:41:52.378Z,83.85
2017-11-11T00:44:22.589Z,83.82
2017-11-11T00:46:52.621Z,84.01
2017-11-11T00:49:21.817Z,83.34
2017-11-11T00:51:51.032Z,83.42
2017-11-11T00:54:20.256Z,83.78
2017-11-11T00:56:49.513Z,83.96
2017-11-11T00:59:18.825Z,83.41
2017-11-11T01:01:48.085Z,84.42
2017-11-11T01:04:17.316Z,83.97
2017-11-11T01:06:46.544Z,83.26
2017-11-11T01:09:15.729Z,83.34
2017-11-11T01:11:45.080Z,83.66
2017-11-11T01:14:14.340Z,82.87
2017-11-11T01:16:43.566Z,82.48
2017-11-11T01:19:13.531Z,83.08
2017-11-11T01:21:42.822Z,83.37
2017-11-11T01:24:12.031Z,83.45
2017-11-11T01:26:41.204Z,83.16
2017-11-11T01:29:10.442Z,83.50
2017-11-11T01:31:39.637Z,83.39
2017-11-11T01:34:10.369Z,83.36
2017-11-11T01:36:39.548Z,83.63
2017-11-11T01:39:08.748Z,83.90
2017-11-11T01:41:37.954Z,84.35
2017-11-11T01:44:07.156Z,84.27
2017-11-11T01:46:36.337Z,84.31
2017-11-11T01:49:05.540Z,84.47
2017-11-11T01:51:34.749Z,84.68
2017-11-11T01:54:03.976Z,84.50
2017-11-11T01:56:33.962Z,84.97
2017-11-11T01:59:03.155Z,84.98
2017-11-11T02:01:32.340Z,85.01
2017-11-11T02:04:01.650Z,84.83
2017-11-11T02:06:31.071Z,84.74
2017-11-11T02:09:01.803Z,84.38
2017-11-11T02:11:30.987Z,83.85
2017-11-11T02:14:00.262Z,84.25
2017-11-11T02:16:29.461Z,85.71
2017-11-11T02:18:58.668Z,86.96
2017-11-11T02:21:27.941Z,86.70
2017-11-11T02:23:58.058Z,86.40
2017-11-11T02:26:28.018Z,87.16
2017-11-11T02:28:57.212Z,88.74
2017-11-11T02:31:28.004Z,88.34
2017-11-11T02:33:57.939Z,88.44
2017-11-11T02:36:27.128Z,88.74
2017-11-11T02:38:56.516Z,88.70
2017-11-11T02:41:25.728Z,89.00
2017-11-11T02:43:54.917Z,88.95
2017-11-11T02:46:24.127Z,89.25
2017-11-11T02:48:53.337Z,89.05
2017-11-11T02:51:22.520Z,88.74
2017-11-11T02:53:51.812Z,88.71
2017-11-11T02:56:21.017Z,88.13
2017-11-11T02:58:50.217Z,88.58
2017-11-11T03:01:19.404Z,88.54
2017-11-11T03:03:49.055Z,88.43
2017-11-11T03:06:18.267Z,89.03
2017-11-11T03:08:48.329Z,88.88
2017-11-11T03:11:17.532Z,88.77
2017-11-11T03:13:46.738Z,89.02
2017-11-11T03:16:15.954Z,88.68
2017-11-11T03:18:45.149Z,88.57
2017-11-11T03:21:14.891Z,88.59
2017-11-11T03:23:44.844Z,88.79
2017-11-11T03:26:14.105Z,89.29
2017-11-11T03:28:44.084Z,89.12
2017-11-11T03:31:13.289Z,89.38
2017-11-11T03:33:43.297Z,89.49
2017-11-11T03:36:12.493Z,89.75
2017-11-11T03:38:41.681Z,89.00
2017-11-11T03:41:10.882Z,89.54
2017-11-11T03:43:40.087Z,88.72
2017-11-11T03:46:09.273Z,89.13
2017-11-11T03:48:38.483Z,89.32
2017-11-11T03:51:07.712Z,88.80
2017-11-11T03:53:37.685Z,88.98
2017-11-11T03:56:06.879Z,89.08
2017-11-11T03:58:36.297Z,88.97
2017-11-11T04:01:05.490Z,88.85
2017-11-11T04:03:34.699Z,88.65
2017-11-11T04:06:04.706Z,88.54
2017-11-11T04:08:34.016Z,88.71
2017-11-11T04:11:03.236Z,88.62
2017-11-11T04:13:33.277Z,88.81
2017-11-11T04:16:02.496Z,88.68
2017-11-11T04:18:31.698Z,88.75
2017-11-11T04:21:02.458Z,88.47
2017-11-11T04:23:32.435Z,88.64
2017-11-11T04:26:01.779Z,88.99
2017-11-11T04:28:31.761Z,88.78
2017-11-11T04:31:00.949Z,88.81
2017-11-11T04:33:30.180Z,88.68
2017-11-11T04:35:59.383Z,88.83
2017-11-11T04:38:30.108Z,88.55
2017-11-11T04:41:00.800Z,88.67
2017-11-11T04:43:30.008Z,88.34
2017-11-11T04:45:59.233Z,88.06
2017-11-11T04:48:28.466Z,88.21
2017-11-11T04:50:58.436Z,88.43
2017-11-11T04:53:27.673Z,88.25
2017-11-11T04:55:56.921Z,88.35
2017-11-11T04:58:26.139Z,88.39
2017-11-11T05:00:55.511Z,87.89
2017-11-11T05:03:24.715Z,88.06
2017-11-11T05:05:53.904Z,87.97
2017-11-11T05:08:23.113Z,87.97
2017-11-11T05:10:52.344Z,87.76
2017-11-11T05:13:21.532Z,87.74
2017-11-11T05:15:50.736Z,87.41
2017-11-11T05:18:20.731Z,87.67
2017-11-11T05:20:49.925Z,87.44
2017-11-11T05:23:19.229Z,87.14
2017-11-11T05:25:48.504Z,87.37
2017-11-11T05:28:17.715Z,87.40
2017-11-11T05:30:46.985Z,87.11
2017-11-11T05:33:16.424Z,87.24
2017-11-11T05:35:45.701Z,87.27
2017-11-11T05:38:14.892Z,87.19
2017-11-11T05:40:44.131Z,87.12
2017-11-11T05:43:13.313Z,86.67
2017-11-11T05:45:42.556Z,86.49
2017-11-11T05:48:11.860Z,86.70
2017-11-11T05:50:41.077Z,86.67
2017-11-11T05:53:10.288Z,86.60
2017-11-11T05:55:39.531Z,86.46
2017-11-11T05:58:08.776Z,86.75
2017-11-11T06:00:38.170Z,86.56
2017-11-11T06:03:07.352Z,86.47
2017-11-11T06:05:36.584Z,86.09
2017-11-11T06:08:05.817Z,85.94
2017-11-11T06:10:36.565Z,85.80
2017-11-11T06:13:06.548Z,85.72
2017-11-11T06:15:35.737Z,86.02
2017-11-11T06:18:05.125Z,85.73
2017-11-11T06:20:34.364Z,86.18
2017-11-11T06:23:03.576Z,85.80
2017-11-11T06:25:33.568Z,85.89
2017-11-11T06:28:04.305Z,85.55
2017-11-11T06:30:35.011Z,85.79
2017-11-11T06:33:04.235Z,85.25
2017-11-11T06:35:33.447Z,85.45
2017-11-11T06:38:02.949Z,85.27
2017-11-11T06:40:32.136Z,85.53
2017-11-11T06:43:01.335Z,85.56
2017-11-11T06:45:32.039Z,85.89
2017-11-11T06:48:01.251Z,85.08
2017-11-11T06:50:32.049Z,85.11
2017-11-11T06:53:02.124Z,85.14
2017-11-11T06:55:31.298Z,85.45
2017-11-11T06:58:00.525Z,85.08
2017-11-11T07:00:30.501Z,85.40
2017-11-11T07:02:59.736Z,84.84
2017-11-11T07:05:28.981Z,84.53
2017-11-11T07:07:58.175Z,85.06
2017-11-11T07:10:27.415Z,85.25
2017-11-11T07:12:56.665Z,85.37
2017-11-11T07:15:25.884Z,85.16
2017-11-11T07:17:55.105Z,85.28
2017-11-11T07:20:25.844Z,84.98
2017-11-11T07:22:56.600Z,85.48
2017-11-11T07:25:26.612Z,85.37
2017-11-11T07:27:56.572Z,85.41
2017-11-11T07:30:25.808Z,85.43
2017-11-11T07:32:54.989Z,85.60
2017-11-11T07:35:24.183Z,85.71
2017-11-11T07:37:53.410Z,85.94
2017-11-11T07:40:22.635Z,85.84
2017-11-11T07:42:51.933Z,86.16
2017-11-11T07:45:21.186Z,86.14
2017-11-11T07:47:50.438Z,86.64
2017-11-11T07:50:19.640Z,87.34
2017-11-11T07:52:48.868Z,87.25
2017-11-11T07:55:18.189Z,87.51
2017-11-11T07:57:48.146Z,87.87
2017-11-11T08:00:17.336Z,87.95
2017-11-11T08:02:46.527Z,88.31
2017-11-11T08:05:15.748Z,88.06
2017-11-11T08:07:44.943Z,88.07
2017-11-11T08:10:14.159Z,88.54
2017-11-11T08:12:43.360Z,89.08
2017-11-11T08:15:12.588Z,88.89
2017-11-11T08:17:42.561Z,88.99
2017-11-11T08:20:11.776Z,89.50
2017-11-11T08:22:41.017Z,89.25
2017-11-11T08:25:11.010Z,89.25
2017-11-11T08:27:40.230Z,89.65
2017-11-11T08:30:10.199Z,89.76
2017-11-11T08:32:39.413Z,89.56
2017-11-11T08:35:09.036Z,89.74
2017-11-11T08:37:39.031Z,89.88
2017-11-11T08:40:08.408Z,90.12
2017-11-11T08:42:37.657Z,90.35
2017-11-11T08:45:07.745Z,90.50
2017-11-11T08:47:36.996Z,90.33
2017-11-11T08:50:06.465Z,90.38
2017-11-11T08:52:37.213Z,90.71
2017-11-11T08:55:06.462Z,90.68
2017-11-11T08:57:35.967Z,90.67
2017-11-11T09:00:05.177Z,90.80
2017-11-11T09:02:34.376Z,90.50
2017-11-11T09:05:05.096Z,90.66
2017-11-11T09:07:34.545Z,90.63
2017-11-11T09:10:05.292Z,91.05
2017-11-11T09:12:35.409Z,90.89
2017-11-11T09:15:04.652Z,91.41
2017-11-11T09:17:33.833Z,90.95
2017-11-11T09:20:03.069Z,90.62
2017-11-11T09:22:32.286Z,90.53
2017-11-11T09:25:02.288Z,90.37
2017-11-11T09:27:32.277Z,90.37
2017-11-11T09:30:01.555Z,89.98
2017-11-11T09:32:30.822Z,90.11
2017-11-11T09:35:00.868Z,90.54
2017-11-11T09:37:30.044Z,90.59
2017-11-11T09:39:59.277Z,90.42
2017-11-11T09:42:28.458Z,90.13
2017-11-11T09:44:57.656Z,90.34
2017-11-11T09:47:27.005Z,89.96
2017-11-11T09:49:57.789Z,90.08
2017-11-11T09:52:26.990Z,90.48
2017-11-11T09:54:56.192Z,90.30
2017-11-11T09:57:25.405Z,90.11
2017-11-11T09:59:54.614Z,90.78
2017-11-11T10:02:23.836Z,90.62
2017-11-11T10:04:53.806Z,90.81
2017-11-11T10:07:23.032Z,90.26
2017-11-11T10:09:53.833Z,89.85
2017-11-11T10:12:23.067Z,89.65
2017-11-11T10:14:53.960Z,89.85
2017-11-11T10:17:23.187Z,89.77
2017-11-11T10:19:53.939Z,89.36
2017-11-11T10:22:23.164Z,89.60
2017-11-11T10:24:52.413Z,89.58
2017-11-11T10:27:21.644Z,89.53
2017-11-11T10:29:51.853Z,89.77
2017-11-11T10:32:22.768Z,89.93
2017-11-11T10:34:51.989Z,90.19
2017-11-11T10:37:22.708Z,90.26
2017-11-11T10:39:51.956Z,90.30
2017-11-11T10:42:21.127Z,90.52
2017-11-11T10:44:51.083Z,90.28
2017-11-11T10:47:20.315Z,90.26
2017-11-11T10:49:49.501Z,89.96
2017-11-11T10:52:18.772Z,90.26
2017-11-11T10:54:48.761Z,89.90
2017-11-11T10:57:18.024Z,90.04
2017-11-11T10:59:47.269Z,90.11
2017-11-11T11:02:16.490Z,90.36
2017-11-11T11:04:45.730Z,89.65
2017-11-11T11:07:14.945Z,90.08
2017-11-11T11:09:46.543Z,90.35
2017-11-11T11:12:15.761Z,90.25
2017-11-11T11:14:44.998Z,90.84
2017-11-11T11:17:15.045Z,90.92
2017-11-11T11:19:44.233Z,90.74
2017-11-11T11:22:13.479Z,90.83
2017-11-11T11:24:42.669Z,91.15
2017-11-11T11:27:13.389Z,91.09
2017-11-11T11:29:42.589Z,90.89
2017-11-11T11:32:11.941Z,90.85
2017-11-11T11:34:41.901Z,90.98
2017-11-11T11:37:11.073Z,91.03
2017-11-11T11:39:40.312Z,91.00
2017-11-11T11:42:09.476Z,90.84
2017-11-11T11:44:38.686Z,90.95
2017-11-11T11:47:07.855Z,90.76
2017-11-11T11:49:37.018Z,90.73
2017-11-11T11:52:06.491Z,90.87
2017-11-11T11:54:35.817Z,90.94
2017-11-11T11:57:06.529Z,90.49
2017-11-11T11:59:35.698Z,90.57
2017-11-11T12:02:04.918Z,90.77
2017-11-11T12:04:34.054Z,90.44
2017-11-11T12:07:04.032Z,90.80
2017-11-11T12:09:33.223Z,90.51
2017-11-11T12:12:02.416Z,90.12
2017-11-11T12:14:31.594Z,90.17
2017-11-11T12:17:00.756Z,90.19
2017-11-11T12:19:30.020Z,89.98
2017-11-11T12:21:59.207Z,90.16
2017-11-11T12:24:28.395Z,90.18
2017-11-11T12:26:57.569Z,90.01
2017-11-11T12:29:26.858Z,89.31
2017-11-11T12:31:56.826Z,89.57
2017-11-11T12:34:26.002Z,89.75
2017-11-11T12:36:55.193Z,90.03
2017-11-11T12:39:24.513Z,89.92
2017-11-11T12:41:53.687Z,89.95
2017-11-11T12:44:23.717Z,90.10
2017-11-11T12:46:53.897Z,89.84
2017-11-11T12:49:23.866Z,90.09
2017-11-11T12:51:53.042Z,89.84
2017-11-11T12:54:22.268Z,89.91
2017-11-11T12:56:52.970Z,90.13
2017-11-11T12:59:22.167Z,90.19
2017-11-11T13:01:51.351Z,90.10
2017-11-11T13:04:20.681Z,89.84
2017-11-11T13:06:50.192Z,89.79
2017-11-11T13:09:19.390Z,89.97
2017-11-11T13:11:48.582Z,89.91
2017-11-11T13:14:17.746Z,90.02
2017-11-11T13:16:46.940Z,90.19
2017-11-11T13:19:16.255Z,90.20
2017-11-11T13:21:45.457Z,90.26
2017-11-11T13:24:14.644Z,90.43
2017-11-11T13:26:43.854Z,90.49
2017-11-11T13:29:13.017Z,90.09
2017-11-11T13:31:42.348Z,90.45
2017-11-11T13:34:11.519Z,90.47
2017-11-11T13:36:40.721Z,90.33
2017-11-11T13:39:09.889Z,90.36
2017-11-11T13:41:39.061Z,90.10
2017-11-11T13:44:08.271Z,90.16
2017-11-11T13:46:37.433Z,90.09
2017-11-11T13:49:06.581Z,90.15
2017-11-11T13:51:39.560Z,90.25
2017-11-11T13:54:09.539Z,90.09
2017-11-11T13:56:38.701Z,90.21
2017-11-11T13:59:08.080Z,90.47
2017-11-11T14:01:37.277Z,89.87
2017-11-11T14:04:06.652Z,90.31
2017-11-11T14:06:35.842Z,90.42
2017-11-11T14:09:05.101Z,90.74
2017-11-11T14:11:34.310Z,90.56
2017-11-11T14:14:03.508Z,90.42
2017-11-11T14:16:32.828Z,90.22
2017-11-11T14:19:02.006Z,90.15
2017-11-11T14:21:31.216Z,90.19
2017-11-11T14:24:00.361Z,90.28
2017-11-11T14:26:30.317Z,90.44
2017-11-11T14:28:59.533Z,90.53
2017-11-11T14:31:28.798Z,90.72
2017-11-11T14:33:58.819Z,90.87
2017-11-11T14:36:28.745Z,90.75
2017-11-11T14:38:57.974Z,90.88
2017-11-11T14:41:27.180Z,90.60
2017-11-11T14:43:57.132Z,90.54
2017-11-11T14:46:26.389Z,90.58
2017-11-11T14:48:55.566Z,90.48
2017-11-11T14:51:24.941Z,90.44
2017-11-11T14:53:54.222Z,90.54
2017-11-11T14:56:23.540Z,90.43
2017-11-11T14:58:52.749Z,90.25
2017-11-11T15:01:21.929Z,90.54
2017-11-11T15:03:51.155Z,90.66
2017-11-11T15:06:20.357Z,90.45
2017-11-11T15:08:49.559Z,90.19
2017-11-11T15:11:18.748Z,90.49
2017-11-11T15:13:47.989Z,90.41
2017-11-11T15:16:17.973Z,90.54
2017-11-11T15:18:47.177Z,90.42
2017-11-11T15:21:16.418Z,90.10
2017-11-11T15:23:45.602Z,89.78
2017-11-11T15:26:14.891Z,89.99
2017-11-11T15:28:44.929Z,90.71
2017-11-11T15:31:14.225Z,91.16
2017-11-11T15:33:43.419Z,91.83
2017-11-11T15:36:12.634Z,91.10
2017-11-11T15:38:41.836Z,89.62
2017-11-11T15:41:11.071Z,89.50
2017-11-11T15:43:41.814Z,89.62
2017-11-11T15:46:10.992Z,88.22
2017-11-11T15:48:40.248Z,88.70
2017-11-11T15:51:10.188Z,88.97
2017-11-11T15:53:39.405Z,88.92
2017-11-11T15:56:08.580Z,88.67
2017-11-11T15:58:37.787Z,89.92
2017-11-11T16:01:06.994Z,90.91
2017-11-11T16:03:36.178Z,91.37
2017-11-11T16:06:05.422Z,90.77
2017-11-11T16:08:35.375Z,91.36
2017-11-11T16:11:04.633Z,91.84
2017-11-11T16:13:35.316Z,91.37
2017-11-11T16:16:04.552Z,90.97
2017-11-11T16:18:33.825Z,90.96
2017-11-11T16:21:03.004Z,90.62
2017-11-11T16:23:32.191Z,90.49
2017-11-11T16:26:01.384Z,90.14
2017-11-11T16:28:30.527Z,90.02
2017-11-11T16:30:59.719Z,89.58
2017-11-11T16:33:28.943Z,89.75
2017-11-11T16:35:58.142Z,89.66
2017-11-11T16:38:28.426Z,89.31
2017-11-11T16:40:57.608Z,89.51
2017-11-11T16:43:26.790Z,89.52
2017-11-11T16:45:55.989Z,89.41
2017-11-11T16:48:25.178Z,89.05
2017-11-11T16:50:54.379Z,89.18
2017-11-11T16:53:23.556Z,89.17
2017-11-11T16:55:52.747Z,89.07
2017-11-11T16:58:22.827Z,89.61
2017-11-11T17:00:52.034Z,89.58
2017-11-11T17:03:21.234Z,89.34
2017-11-11T17:05:50.582Z,89.60
2017-11-11T17:08:19.772Z,89.83
2017-11-11T17:10:49.004Z,89.83
2017-11-11T17:13:18.206Z,90.10
2017-11-11T17:15:47.405Z,90.21
2017-11-11T17:18:16.791Z,90.19
2017-11-11T17:20:45.985Z,90.35
2017-11-11T17:23:15.203Z,90.45
2017-11-11T17:25:44.411Z,90.41
2017-11-11T17:28:13.731Z,90.91
2017-11-11T17:30:43.427Z,90.90
2017-11-11T17:33:12.918Z,90.89
2017-11-11T17:35:42.136Z,90.89
2017-11-11T17:38:12.145Z,90.90
2017-11-11T17:40:41.420Z,90.95
2017-11-11T17:43:10.661Z,90.81
2017-11-11T17:45:40.650Z,90.74
2017-11-11T17:48:09.861Z,90.64
2017-11-11T17:50:39.866Z,90.57
2017-11-11T17:53:10.590Z,90.39
2017-11-11T17:55:39.851Z,90.33
2017-11-11T17:58:09.040Z,90.31
2017-11-11T18:00:38.361Z,90.29
2017-11-11T18:03:07.561Z,90.25
2017-11-11T18:05:36.822Z,89.92
2017-11-11T18:08:06.853Z,89.76
2017-11-11T18:10:36.789Z,89.66
2017-11-11T18:13:06.027Z,89.61
2017-11-11T18:15:36.741Z,89.82
2017-11-11T18:18:05.942Z,89.51
2017-11-11T18:20:35.918Z,89.49
2017-11-11T18:23:05.184Z,89.52
2017-11-11T18:25:34.435Z,89.46
2017-11-11T18:28:03.643Z,89.25
2017-11-11T18:30:32.856Z,89.53
2017-11-11T18:33:02.073Z,89.16
2017-11-11T18:35:32.175Z,89.03
2017-11-11T18:38:01.441Z,88.98
2017-11-11T18:40:30.707Z,89.39
2017-11-11T18:43:00.751Z,89.63
2017-11-11T18:45:30.025Z,89.65
2017-11-11T18:48:00.114Z,89.43
2017-11-11T18:50:30.121Z,89.66
2017-11-11T18:52:59.344Z,89.74
2017-11-11T18:55:28.753Z,89.60
2017-11-11T18:57:58.797Z,89.60
2017-11-11T19:00:28.227Z,89.46
2017-11-11T19:02:58.445Z,89.44
2017-11-11T19:05:27.764Z,89.41
2017-11-11T19:07:56.992Z,89.35
2017-11-11T19:10:27.068Z,89.34
2017-11-11T19:12:56.365Z,89.38
2017-11-11T19:15:25.673Z,89.27
2017-11-11T19:17:54.935Z,89.18
2017-11-11T19:20:24.343Z,89.19
2017-11-11T19:22:53.561Z,89.39
2017-11-11T19:25:24.140Z,89.30
2017-11-11T19:27:53.594Z,89.38
2017-11-11T19:30:23.402Z,89.51
2017-11-11T19:32:52.715Z,89.42
2017-11-11T19:35:21.936Z,89.44
2017-11-11T19:37:51.947Z,89.26
2017-11-11T19:40:21.175Z,89.42
2017-11-11T19:42:50.412Z,89.36
2017-11-11T19:45:19.689Z,89.38
2017-11-11T19:47:48.916Z,89.25
2017-11-11T19:50:18.174Z,89.57
2017-11-11T19:52:47.527Z,89.88
2017-11-11T19:55:17.558Z,89.99
2017-11-11T19:57:47.562Z,90.07
2017-11-11T20:00:16.919Z,90.57
2017-11-11T20:02:46.242Z,90.41
2017-11-11T20:05:15.518Z,91.07
2017-11-11T20:07:44.952Z,91.53
2017-11-11T20:10:14.424Z,91.43
2017-11-11T20:12:43.673Z,89.78
2017-11-11T20:15:12.897Z,88.44
2017-11-11T20:17:42.121Z,89.37
2017-11-11T20:20:11.418Z,88.51
2017-11-11T20:22:40.607Z,87.86
2017-11-11T20:25:11.473Z,88.30
2017-11-11T20:27:40.675Z,87.97
2017-11-11T20:30:10.567Z,88.22
2017-11-11T20:32:39.809Z,87.99
2017-11-11T20:35:09.941Z,88.31
2017-11-11T20:37:39.957Z,88.56
2017-11-11T20:40:09.965Z,88.84
2017-11-11T20:55:45.008Z,91.09
2017-11-11T20:58:15.169Z,91.39
2017-11-11T21:00:44.412Z,91.63
2017-11-11T21:03:14.434Z,91.55
2017-11-11T21:05:44.479Z,91.15
2017-11-11T21:08:14.440Z,91.07
2017-11-11T21:10:45.250Z,91.08
2017-11-11T21:13:15.355Z,90.89
2017-11-11T21:15:44.545Z,90.81
2017-11-11T21:18:13.771Z,90.90
2017-11-11T21:20:43.029Z,90.72
2017-11-11T21:23:12.246Z,90.52
2017-11-11T21:25:41.535Z,90.18
2017-11-11T21:28:11.305Z,90.28
2017-11-11T21:30:40.581Z,90.38
2017-11-11T21:33:09.804Z,90.29
2017-11-11T21:48:44.835Z,92.66
2017-11-11T21:51:14.834Z,92.58
2017-11-11T21:53:44.980Z,92.40
2017-11-11T21:56:15.068Z,92.43
2017-11-11T22:11:50.064Z,93.18
2017-11-11T22:14:19.428Z,93.00
2017-11-11T22:16:49.436Z,93.09
2017-11-11T22:19:18.664Z,92.85
2017-11-11T22:21:47.885Z,92.55
2017-11-11T22:24:17.202Z,92.48
2017-11-11T22:26:47.317Z,92.29
2017-11-11T22:29:17.310Z,91.73
2017-11-11T22:31:48.110Z,91.42
2017-11-11T22:34:17.339Z,91.26
2017-11-11T22:36:47.025Z,91.06
2017-11-11T22:39:16.287Z,90.91
2017-11-11T22:41:46.985Z,90.74
2017-11-11T22:44:16.219Z,90.74
2017-11-11T22:46:46.185Z,90.85
2017-11-11T22:49:15.393Z,90.76
2017-11-11T22:51:44.644Z,90.79
2017-11-11T22:54:13.862Z,90.92
2017-11-11T22:56:43.819Z,90.84
2017-11-11T22:59:13.319Z,90.70
2017-11-11T23:01:42.552Z,90.52
2017-11-11T23:04:11.806Z,90.65
2017-11-11T23:06:41.050Z,90.41
2017-11-11T23:09:10.290Z,90.50
2017-11-11T23:11:39.511Z,90.34
2017-11-11T23:14:08.703Z,90.38
2017-11-11T23:16:39.597Z,90.51
2017-11-11T23:19:08.945Z,90.50
2017-11-11T23:21:38.148Z,90.59
2017-11-11T23:24:07.357Z,90.74
2017-11-11T23:26:37.331Z,90.85
2017-11-11T23:29:06.845Z,90.92
2017-11-11T23:31:36.113Z,90.92
2017-11-11T23:34:05.331Z,91.10
2017-11-11T23:36:34.546Z,91.07
2017-11-11T23:39:03.755Z,91.23
2017-11-11T23:41:32.968Z,91.19
2017-11-11T23:44:02.215Z,91.31
2017-11-11T23:46:31.424Z,91.36
2017-11-11T23:49:00.647Z,91.32
2017-11-11T23:51:30.733Z,91.56
2017-11-11T23:53:59.936Z,91.50
2017-11-11T23:56:29.204Z,91.65
2017-11-11T23:58:58.396Z,91.55
